CMA CGM Volga — 5BJR2 — position and weather

sailwx.info

Track history (hours):
 
Tides and Currents Weather Stations Pressure Air Temp Water Temp Dewpoint Dewpoint Depression Visibility Wind Speed Wind Dir Waves Ship Positions

CMA CGM Volga

Last reported at 2018-Apr-20 08:30 UTC. Time now 2018-Apr-20 08:47 UTC.
Position N 59°46' E 028°24'.

Length 184 m; draft 7.2 m.

Type: Ship (hazmat cat A). MMSI: 212456000.

Date/timePositionNaut miles runAvg speedWind from/ knotsBaromVisibWave heightAir tempDewpointWater temp
2018-Apr-20 08:30N 59°46' E 028°24'5 9.2
2018-Apr-20 08:00N 59°41' E 028°25'1 1.9
2018-Apr-20 07:29N 59°40' E 028°24'0 0.0
2018-Apr-20 06:59N 59°40' E 028°24'0 0.0
2018-Apr-20 06:29N 59°40' E 028°24'0 0.0
2018-Apr-20 05:59N 59°40' E 028°24'0 0.0
2018-Apr-20 05:29N 59°40' E 028°24'0 0.0
2018-Apr-20 04:59N 59°40' E 028°24'0 0.0
2018-Apr-20 04:29N 59°40' E 028°24'0 0.0
2018-Apr-20 03:59N 59°40' E 028°24'0 0.0
2018-Apr-20 03:29N 59°40' E 028°24'0 0.0
2018-Apr-20 02:59N 59°40' E 028°24'0 0.0
2018-Apr-20 02:29N 59°40' E 028°24'0 0.0
2018-Apr-20 01:59N 59°40' E 028°24'0 0.0
2018-Apr-20 01:29N 59°40' E 028°24'0 0.0
2018-Apr-20 00:59N 59°40' E 028°24'0 0.0
2018-Apr-20 00:29N 59°40' E 028°24'0 0.0
2018-Apr-19 23:59N 59°40' E 028°24'0 0.0
2018-Apr-19 23:29N 59°40' E 028°24'0 0.0
2018-Apr-19 22:56N 59°40' E 028°24'0 0.0
2018-Apr-19 22:29N 59°40' E 028°24'0 0.0
2018-Apr-19 21:56N 59°40' E 028°24'0 0.0
2018-Apr-19 21:29N 59°40' E 028°24'0 0.0
2018-Apr-19 20:53N 59°40' E 028°24'0 0.0
2018-Apr-19 20:26N 59°40' E 028°24'0 0.0
2018-Apr-19 19:56N 59°40' E 028°24'0 0.0
2018-Apr-19 19:26N 59°40' E 028°24'0 0.0
2018-Apr-19 18:56N 59°40' E 028°24'0 0.0
2018-Apr-19 18:26N 59°40' E 028°24'0 0.0
2018-Apr-19 17:56N 59°40' E 028°24'0 0.0
2018-Apr-19 17:29N 59°40' E 028°24'0 0.0
2018-Apr-19 16:59N 59°40' E 028°24'0 0.8
2018-Apr-19 16:31N 59°41' E 028°24'4 7.2
2018-Apr-19 16:01N 59°44' E 028°24'611.8
2018-Apr-19 15:30N 59°50' E 028°26'713.7
2018-Apr-19 15:00N 59°56' E 028°34'3 6.3
2018-Apr-19 14:30N 59°59' E 028°35'5 9.8
2018-Apr-19 14:00N 60°03' E 028°29'713.8
2018-Apr-19 13:30N 60°06' E 028°17'713.8
2018-Apr-19 13:01N 60°09' E 028°04'713.8
2018-Apr-19 12:30N 60°10' E 027°50'713.1
2018-Apr-19 12:01N 60°08' E 027°38'714.0
2018-Apr-19 11:30N 60°04' E 027°26'713.9
2018-Apr-19 11:00N 60°01' E 027°14'713.4
2018-Apr-19 10:30N 59°58' E 027°02'713.9
2018-Apr-19 10:01N 59°59' E 026°48'713.4
2018-Apr-19 09:30N 59°59' E 026°35'713.6
2018-Apr-19 09:00N 59°57' E 026°22'2713.8
2018-Apr-19 07:02N 59°49' E 025°30'013.3
2018-Apr-19 07:00N 59°49' E 025°29'713.9
2018-Apr-19 06:30N 59°48' E 025°16'713.9
2018-Apr-19 06:00N 59°47' E 025°02'713.9
2018-Apr-19 05:30N 59°45' E 024°49'714.0
2018-Apr-19 05:01N 59°44' E 024°35'713.9
2018-Apr-19 04:30N 59°42' E 024°21'713.7
2018-Apr-19 04:00N 59°40' E 024°08'713.6
2018-Apr-19 03:30N 59°38' E 023°56'713.8
2018-Apr-19 03:01N 59°36' E 023°43'714.2
2018-Apr-19 02:30N 59°33' E 023°30'714.1
2018-Apr-19 02:01N 59°31' E 023°16'714.2
2018-Apr-19 01:31N 59°29' E 023°03'22013.5
2018-Apr-18 09:17N 56°19' E 019°36'414.0
2018-Apr-18 08:59N 56°15' E 019°33'914.0
2018-Apr-18 08:19N 56°06' E 019°27'913.9
2018-Apr-18 07:42N 55°58' E 019°21'314.1
2018-Apr-18 07:29N 55°56' E 019°19'813.9
2018-Apr-18 06:54N 55°48' E 019°13'513.7
2018-Apr-18 06:31N 55°43' E 019°09'913.8
2018-Apr-18 05:51N 55°35' E 019°03'1413.0
2018-Apr-18 04:45N 55°21' E 019°02'413.4
2018-Apr-18 04:29N 55°17' E 019°03'1013.3
2018-Apr-18 03:46N 55°07' E 019°03'413.2
2018-Apr-18 03:29N 55°04' E 019°03'613.1
2018-Apr-18 03:00N 54°57' E 019°04'713.0
2018-Apr-18 02:30N 54°51' E 019°05'612.9
2018-Apr-18 02:01N 54°44' E 019°05'612.8
2018-Apr-18 01:31N 54°38' E 019°07'713.1
2018-Apr-18 01:00N 54°32' E 019°04'713.6
2018-Apr-18 00:30N 54°26' E 018°58'714.0
2018-Apr-18 00:01N 54°24' E 018°46'2 3.6
2018-Apr-17 23:29N 54°23' E 018°43'0 0.0
2018-Apr-17 22:59N 54°23' E 018°43'0 0.0
2018-Apr-17 22:29N 54°23' E 018°43'0 0.0
2018-Apr-17 21:59N 54°23' E 018°43'0 0.0
2018-Apr-17 21:29N 54°23' E 018°43'0 0.0
2018-Apr-17 20:58N 54°23' E 018°43'0 0.0
2018-Apr-17 20:29N 54°23' E 018°43'0 0.0
2018-Apr-17 19:59N 54°23' E 018°43'0 0.0
2018-Apr-17 19:29N 54°23' E 018°43'0 0.0
2018-Apr-17 18:59N 54°23' E 018°43'0 0.0
2018-Apr-17 18:29N 54°23' E 018°43'0 0.0
2018-Apr-17 17:59N 54°23' E 018°43'0 0.0
2018-Apr-17 17:29N 54°23' E 018°43'0 0.0
2018-Apr-17 16:59N 54°23' E 018°43'0 0.0
2018-Apr-17 16:29N 54°23' E 018°43'0 0.0
2018-Apr-17 15:58N 54°23' E 018°43'0 0.0
2018-Apr-17 15:29N 54°23' E 018°43'0 0.0
2018-Apr-17 14:59N 54°23' E 018°43'0 0.0
2018-Apr-17 14:29N 54°23' E 018°43'0 0.0
2018-Apr-17 13:59N 54°23' E 018°43'0 0.0
2018-Apr-17 13:29N 54°23' E 018°43'0 0.0
2018-Apr-17 12:59N 54°23' E 018°43'0 0.0
2018-Apr-17 12:29N 54°23' E 018°43'0 0.0
2018-Apr-17 11:59N 54°23' E 018°43'0 0.0
2018-Apr-17 11:29N 54°23' E 018°43'0 0.0
2018-Apr-17 10:59N 54°23' E 018°43'0 0.0
2018-Apr-17 10:29N 54°23' E 018°43'0 0.0
2018-Apr-17 09:59N 54°23' E 018°43'0 0.0
2018-Apr-17 09:29N 54°23' E 018°43'0 0.0
2018-Apr-17 08:59N 54°23' E 018°43'0 0.0
2018-Apr-17 08:29N 54°23' E 018°43'0 0.0
2018-Apr-17 07:59N 54°23' E 018°43'0 0.0
2018-Apr-17 07:29N 54°23' E 018°43'0 0.0
2018-Apr-17 06:59N 54°23' E 018°43'0 0.0
2018-Apr-17 06:29N 54°23' E 018°43'0 0.0
2018-Apr-17 05:59N 54°23' E 018°43'0 0.0
2018-Apr-17 05:29N 54°23' E 018°43'0 0.0
2018-Apr-17 04:59N 54°23' E 018°43'0 0.0
2018-Apr-17 04:29N 54°23' E 018°43'0 0.0
2018-Apr-17 03:59N 54°23' E 018°43'0 0.0
2018-Apr-17 03:29N 54°23' E 018°43'0 0.0
2018-Apr-17 02:59N 54°23' E 018°43'0 0.0
2018-Apr-17 02:29N 54°23' E 018°43'0 0.0
2018-Apr-17 01:59N 54°23' E 018°43'0 0.0
2018-Apr-17 01:29N 54°23' E 018°43'0 0.0
2018-Apr-17 00:59N 54°23' E 018°43'0 0.0
2018-Apr-17 00:29N 54°23' E 018°43'0 0.0
2018-Apr-16 23:59N 54°23' E 018°43'0 0.0
2018-Apr-16 23:29N 54°23' E 018°43'0 0.0
2018-Apr-16 22:59N 54°23' E 018°43'0 0.0
2018-Apr-16 22:29N 54°23' E 018°43'0 0.0
2018-Apr-16 21:59N 54°23' E 018°43'0 0.0
2018-Apr-16 21:29N 54°23' E 018°43'0 0.0
2018-Apr-16 20:59N 54°23' E 018°43'0 0.0
2018-Apr-16 20:29N 54°23' E 018°43'0 0.0
2018-Apr-16 19:59N 54°23' E 018°43'0 0.0
2018-Apr-16 19:29N 54°23' E 018°43'0 0.0
2018-Apr-16 18:59N 54°23' E 018°43'0 0.0
2018-Apr-16 18:26N 54°23' E 018°43'0 0.0
2018-Apr-16 17:59N 54°23' E 018°43'0 0.0
2018-Apr-16 17:29N 54°23' E 018°43'0 0.0
2018-Apr-16 16:59N 54°23' E 018°43'0 0.0
2018-Apr-16 16:29N 54°23' E 018°43'0 0.0
2018-Apr-16 15:59N 54°23' E 018°43'0 0.0
2018-Apr-16 15:29N 54°23' E 018°43'0 0.0
2018-Apr-16 14:59N 54°23' E 018°43'0 0.0
2018-Apr-16 14:28N 54°23' E 018°43'0 0.0
2018-Apr-16 13:59N 54°23' E 018°43'0 0.0
2018-Apr-16 13:29N 54°23' E 018°43'0 0.0
2018-Apr-16 12:59N 54°23' E 018°43'0 0.0
2018-Apr-16 12:29N 54°23' E 018°43'0 0.0
2018-Apr-16 11:59N 54°23' E 018°43'0 0.0
2018-Apr-16 11:29N 54°23' E 018°43'0 0.0
2018-Apr-16 10:59N 54°23' E 018°43'0 0.0
2018-Apr-16 10:29N 54°23' E 018°43'0 0.0
2018-Apr-16 09:59N 54°23' E 018°43'0 0.0
2018-Apr-16 09:30N 54°23' E 018°43'2 3.3
2018-Apr-16 09:00N 54°24' E 018°46'4 8.3
2018-Apr-16 08:31N 54°26' E 018°52'4 8.2
2018-Apr-16 08:00N 54°29' E 018°57'611.4
2018-Apr-16 07:30N 54°34' E 019°02'713.2
2018-Apr-16 07:00N 54°40' E 019°03'714.0
2018-Apr-16 06:30N 54°47' E 019°04'714.0
2018-Apr-16 06:00N 54°54' E 019°08'713.8
2018-Apr-16 05:30N 55°01' E 019°12'713.9
2018-Apr-16 05:00N 55°07' E 019°16'714.1
2018-Apr-16 04:30N 55°14' E 019°20'  
2018-Apr-13 23:52N 58°52' E 021°27'513.7
2018-Apr-13 23:31N 58°56' E 021°29'713.8
2018-Apr-13 23:00N 59°03' E 021°33'713.6
2018-Apr-13 22:30N 59°09' E 021°40'713.7
2018-Apr-13 22:00N 59°13' E 021°51'713.9
2018-Apr-13 21:29N 59°17' E 022°01'713.8
2018-Apr-13 21:00N 59°22' E 022°12'714.0
2018-Apr-13 20:31N 59°26' E 022°23'714.2
2018-Apr-13 20:01N 59°30' E 022°34'714.4
2018-Apr-13 19:31N 59°32' E 022°48'714.3
2018-Apr-13 19:00N 59°34' E 023°01'714.5
2018-Apr-13 18:30N 59°36' E 023°15'714.4
2018-Apr-13 18:01N 59°38' E 023°29'714.3
2018-Apr-13 17:30N 59°40' E 023°42'714.4
2018-Apr-13 17:00N 59°42' E 023°56'714.4
2018-Apr-13 16:30N 59°44' E 024°10'714.4
2018-Apr-13 16:01N 59°45' E 024°24'713.0
2018-Apr-13 15:31N 59°43' E 024°36'714.4
2018-Apr-13 15:01N 59°38' E 024°47'1010.4
2018-Apr-13 14:00N 59°29' E 024°58'0 0.0
2018-Apr-13 13:29N 59°29' E 024°58'0 0.0
2018-Apr-13 12:59N 59°29' E 024°58'0 0.0
2018-Apr-13 12:29N 59°29' E 024°58'0 0.0
2018-Apr-13 11:59N 59°29' E 024°58'0 0.0
2018-Apr-13 11:29N 59°29' E 024°58'0 0.0
2018-Apr-13 10:59N 59°29' E 024°58'0 0.0
2018-Apr-13 10:29N 59°29' E 024°58'0 0.0
2018-Apr-13 09:59N 59°29' E 024°58'0 0.0
2018-Apr-13 09:29N 59°29' E 024°58'0 0.0
2018-Apr-13 08:59N 59°29' E 024°58'0 0.0
2018-Apr-13 08:29N 59°29' E 024°58'0 0.0
2018-Apr-13 07:59N 59°29' E 024°58'0 0.0
2018-Apr-13 07:29N 59°29' E 024°58'0 0.0
2018-Apr-13 06:59N 59°29' E 024°58'0 0.0
2018-Apr-13 06:29N 59°29' E 024°58'0 0.0
2018-Apr-13 05:59N 59°29' E 024°58'0 0.0
2018-Apr-13 05:29N 59°29' E 024°58'0 0.0
2018-Apr-13 04:59N 59°29' E 024°58'0 0.0
2018-Apr-13 04:29N 59°29' E 024°58'0 0.0
2018-Apr-13 03:59N 59°29' E 024°58'1 2.5
2018-Apr-13 03:30N 59°31' E 024°58'713.5
2018-Apr-13 03:01N 59°36' E 024°51'510.3
2018-Apr-13 02:31N 59°40' E 024°43'4 8.9
2018-Apr-13 02:01N 59°42' E 024°36'5 9.1
2018-Apr-13 01:31N 59°43' E 024°27'713.8
2018-Apr-13 01:00N 59°41' E 024°13'713.7
2018-Apr-13 00:31N 59°39' E 024°01'713.9
2018-Apr-13 00:01N 59°37' E 023°48'713.8
2018-Apr-12 23:30N 59°34' E 023°35'814.0
2018-Apr-12 22:58N 59°32' E 023°21'2414.0
2018-Apr-12 21:16N 59°24' E 022°37'513.8
2018-Apr-12 20:53N 59°21' E 022°28'613.4
2018-Apr-12 20:29N 59°18' E 022°20'613.5
2018-Apr-12 20:00N 59°14' E 022°10'1413.2
2018-Apr-12 18:57N 59°05' E 021°49'714.9
2018-Apr-12 18:30N 58°59' E 021°42'815.4
2018-Apr-12 18:00N 58°52' E 021°36'815.2
2018-Apr-12 17:27N 58°44' E 021°29'20815.3
2018-Apr-12 03:52N 55°32' E 019°04'2415.7
2018-Apr-12 02:20N 55°08' E 019°03'515.7
2018-Apr-12 02:00N 55°03' E 019°04'815.4
2018-Apr-12 01:30N 54°55' E 019°04'815.5
2018-Apr-12 01:00N 54°47' E 019°05'815.5
2018-Apr-12 00:30N 54°39' E 019°06'714.5
2018-Apr-12 00:01N 54°32' E 019°04'815.2
2018-Apr-11 23:30N 54°26' E 018°57'714.8
2018-Apr-11 23:00N 54°24' E 018°45'1 2.6
2018-Apr-11 22:30N 54°23' E 018°43'0 0.0
2018-Apr-11 22:00N 54°23' E 018°43'0 0.0
2018-Apr-11 21:30N 54°23' E 018°43'0 0.0
2018-Apr-11 21:00N 54°23' E 018°43'0 0.0
2018-Apr-11 20:30N 54°23' E 018°43'0 0.0
2018-Apr-11 19:57N 54°23' E 018°43'0 0.0
2018-Apr-11 19:30N 54°23' E 018°43'0 0.0
2018-Apr-11 19:00N 54°23' E 018°43'0 0.0
2018-Apr-11 18:30N 54°23' E 018°43'0 0.0
2018-Apr-11 18:00N 54°23' E 018°43'0 0.0
2018-Apr-11 17:30N 54°23' E 018°43'0 0.0
2018-Apr-11 17:00N 54°23' E 018°43'0 0.0
2018-Apr-11 16:30N 54°23' E 018°43'0 0.0
2018-Apr-11 16:00N 54°23' E 018°43'0 0.0
2018-Apr-11 15:30N 54°23' E 018°43'0 0.0
2018-Apr-11 15:00N 54°23' E 018°43'0 0.0
2018-Apr-11 14:30N 54°23' E 018°43'0 0.0
2018-Apr-11 14:00N 54°23' E 018°43'0 0.0
2018-Apr-11 13:30N 54°23' E 018°43'0 0.0
2018-Apr-11 13:00N 54°23' E 018°43'0 0.0
2018-Apr-11 12:30N 54°23' E 018°43'0 0.0
2018-Apr-11 12:00N 54°23' E 018°43'0 0.0
2018-Apr-11 11:30N 54°23' E 018°43'0 0.0
2018-Apr-11 11:00N 54°23' E 018°43'0 0.0
2018-Apr-11 10:30N 54°23' E 018°43'0 0.0
2018-Apr-11 10:00N 54°23' E 018°43'0 0.0
2018-Apr-11 09:30N 54°23' E 018°43'0 0.0
2018-Apr-11 09:00N 54°23' E 018°43'0 0.0
2018-Apr-11 08:30N 54°23' E 018°43'0 0.0
2018-Apr-11 08:00N 54°23' E 018°43'0 0.0
2018-Apr-11 07:30N 54°23' E 018°43'0 0.0
2018-Apr-11 07:00N 54°23' E 018°43'0 0.0
2018-Apr-11 06:30N 54°23' E 018°43'0 0.0
2018-Apr-11 06:00N 54°23' E 018°43'0 0.0
2018-Apr-11 05:30N 54°23' E 018°43'0 0.0
2018-Apr-11 05:00N 54°23' E 018°43'0 0.0
2018-Apr-11 04:30N 54°23' E 018°43'0 0.0
2018-Apr-11 04:00N 54°23' E 018°43'0 0.0
2018-Apr-11 03:30N 54°23' E 018°43'0 0.0
2018-Apr-11 03:00N 54°23' E 018°43'0 0.0
2018-Apr-11 02:30N 54°23' E 018°43'0 0.0
2018-Apr-11 02:00N 54°23' E 018°43'0 0.0
2018-Apr-11 01:30N 54°23' E 018°43'0 0.9
2018-Apr-11 01:00N 54°24' E 018°43'4 7.5
2018-Apr-11 00:30N 54°25' E 018°49'3 5.5
2018-Apr-11 00:00N 54°26' E 018°54'510.2
2018-Apr-10 23:30N 54°30' E 018°59'714.1
2018-Apr-10 23:00N 54°37' E 019°04'713.2
2018-Apr-10 22:30N 54°43' E 019°01'713.1
2018-Apr-10 22:00N 54°49' E 019°02'713.9
2018-Apr-10 21:30N 54°56' E 019°02'714.0
2018-Apr-10 21:00N 55°03' E 019°01'713.8
2018-Apr-10 20:30N 55°10' E 019°00'1414.0
2018-Apr-10 19:31N 55°24' E 019°00'015.2
2018-Apr-10 19:30N 55°24' E 019°00'714.0
2018-Apr-10 19:00N 55°31' E 019°01'  
Track history (hours):
 
Tides and Currents Weather Stations Pressure Air Temp Water Temp Dewpoint Dewpoint Depression Visibility Wind Speed Wind Dir Waves Ship Positions

CMA CGM Volga

Last reported at 2018-Apr-20 08:30 UTC. Time now 2018-Apr-20 08:47 UTC.
Position N 59°46' E 028°24'.

Length 184 m; draft 7.2 m.

Type: Ship (hazmat cat A). MMSI: 212456000.

Date/timePositionNaut miles runAvg speedWind from/ knotsBaromVisibWave heightAir tempDewpointWater temp
2018-Apr-20 08:30N 59°46' E 028°24'5 9.2
2018-Apr-20 08:00N 59°41' E 028°25'1 1.9
2018-Apr-20 07:29N 59°40' E 028°24'0 0.0
2018-Apr-20 06:59N 59°40' E 028°24'0 0.0
2018-Apr-20 06:29N 59°40' E 028°24'0 0.0
2018-Apr-20 05:59N 59°40' E 028°24'0 0.0
2018-Apr-20 05:29N 59°40' E 028°24'0 0.0
2018-Apr-20 04:59N 59°40' E 028°24'0 0.0
2018-Apr-20 04:29N 59°40' E 028°24'0 0.0
2018-Apr-20 03:59N 59°40' E 028°24'0 0.0
2018-Apr-20 03:29N 59°40' E 028°24'0 0.0
2018-Apr-20 02:59N 59°40' E 028°24'0 0.0
2018-Apr-20 02:29N 59°40' E 028°24'0 0.0
2018-Apr-20 01:59N 59°40' E 028°24'0 0.0
2018-Apr-20 01:29N 59°40' E 028°24'0 0.0
2018-Apr-20 00:59N 59°40' E 028°24'0 0.0
2018-Apr-20 00:29N 59°40' E 028°24'0 0.0
2018-Apr-19 23:59N 59°40' E 028°24'0 0.0
2018-Apr-19 23:29N 59°40' E 028°24'0 0.0
2018-Apr-19 22:56N 59°40' E 028°24'0 0.0
2018-Apr-19 22:29N 59°40' E 028°24'0 0.0
2018-Apr-19 21:56N 59°40' E 028°24'0 0.0
2018-Apr-19 21:29N 59°40' E 028°24'0 0.0
2018-Apr-19 20:53N 59°40' E 028°24'0 0.0
2018-Apr-19 20:26N 59°40' E 028°24'0 0.0
2018-Apr-19 19:56N 59°40' E 028°24'0 0.0
2018-Apr-19 19:26N 59°40' E 028°24'0 0.0
2018-Apr-19 18:56N 59°40' E 028°24'0 0.0
2018-Apr-19 18:26N 59°40' E 028°24'0 0.0
2018-Apr-19 17:56N 59°40' E 028°24'0 0.0
2018-Apr-19 17:29N 59°40' E 028°24'0 0.0
2018-Apr-19 16:59N 59°40' E 028°24'0 0.8
2018-Apr-19 16:31N 59°41' E 028°24'4 7.2
2018-Apr-19 16:01N 59°44' E 028°24'611.8
2018-Apr-19 15:30N 59°50' E 028°26'713.7
2018-Apr-19 15:00N 59°56' E 028°34'3 6.3
2018-Apr-19 14:30N 59°59' E 028°35'5 9.8
2018-Apr-19 14:00N 60°03' E 028°29'713.8
2018-Apr-19 13:30N 60°06' E 028°17'713.8
2018-Apr-19 13:01N 60°09' E 028°04'713.8
2018-Apr-19 12:30N 60°10' E 027°50'713.1
2018-Apr-19 12:01N 60°08' E 027°38'714.0
2018-Apr-19 11:30N 60°04' E 027°26'713.9
2018-Apr-19 11:00N 60°01' E 027°14'713.4
2018-Apr-19 10:30N 59°58' E 027°02'713.9
2018-Apr-19 10:01N 59°59' E 026°48'713.4
2018-Apr-19 09:30N 59°59' E 026°35'713.6
2018-Apr-19 09:00N 59°57' E 026°22'2713.8
2018-Apr-19 07:02N 59°49' E 025°30'013.3
2018-Apr-19 07:00N 59°49' E 025°29'713.9
2018-Apr-19 06:30N 59°48' E 025°16'713.9
2018-Apr-19 06:00N 59°47' E 025°02'713.9
2018-Apr-19 05:30N 59°45' E 024°49'714.0
2018-Apr-19 05:01N 59°44' E 024°35'713.9
2018-Apr-19 04:30N 59°42' E 024°21'713.7
2018-Apr-19 04:00N 59°40' E 024°08'713.6
2018-Apr-19 03:30N 59°38' E 023°56'713.8
2018-Apr-19 03:01N 59°36' E 023°43'714.2
2018-Apr-19 02:30N 59°33' E 023°30'714.1
2018-Apr-19 02:01N 59°31' E 023°16'714.2
2018-Apr-19 01:31N 59°29' E 023°03'22013.5
2018-Apr-18 09:17N 56°19' E 019°36'414.0
2018-Apr-18 08:59N 56°15' E 019°33'914.0
2018-Apr-18 08:19N 56°06' E 019°27'913.9
2018-Apr-18 07:42N 55°58' E 019°21'314.1
2018-Apr-18 07:29N 55°56' E 019°19'813.9
2018-Apr-18 06:54N 55°48' E 019°13'513.7
2018-Apr-18 06:31N 55°43' E 019°09'913.8
2018-Apr-18 05:51N 55°35' E 019°03'1413.0
2018-Apr-18 04:45N 55°21' E 019°02'413.4
2018-Apr-18 04:29N 55°17' E 019°03'1013.3
2018-Apr-18 03:46N 55°07' E 019°03'413.2
2018-Apr-18 03:29N 55°04' E 019°03'613.1
2018-Apr-18 03:00N 54°57' E 019°04'713.0
2018-Apr-18 02:30N 54°51' E 019°05'612.9
2018-Apr-18 02:01N 54°44' E 019°05'612.8
2018-Apr-18 01:31N 54°38' E 019°07'713.1
2018-Apr-18 01:00N 54°32' E 019°04'713.6
2018-Apr-18 00:30N 54°26' E 018°58'714.0
2018-Apr-18 00:01N 54°24' E 018°46'2 3.6
2018-Apr-17 23:29N 54°23' E 018°43'0 0.0
2018-Apr-17 22:59N 54°23' E 018°43'0 0.0
2018-Apr-17 22:29N 54°23' E 018°43'0 0.0
2018-Apr-17 21:59N 54°23' E 018°43'0 0.0
2018-Apr-17 21:29N 54°23' E 018°43'0 0.0
2018-Apr-17 20:58N 54°23' E 018°43'0 0.0
2018-Apr-17 20:29N 54°23' E 018°43'0 0.0
2018-Apr-17 19:59N 54°23' E 018°43'0 0.0
2018-Apr-17 19:29N 54°23' E 018°43'0 0.0
2018-Apr-17 18:59N 54°23' E 018°43'0 0.0
2018-Apr-17 18:29N 54°23' E 018°43'0 0.0
2018-Apr-17 17:59N 54°23' E 018°43'0 0.0
2018-Apr-17 17:29N 54°23' E 018°43'0 0.0
2018-Apr-17 16:59N 54°23' E 018°43'0 0.0
2018-Apr-17 16:29N 54°23' E 018°43'0 0.0
2018-Apr-17 15:58N 54°23' E 018°43'0 0.0
2018-Apr-17 15:29N 54°23' E 018°43'0 0.0
2018-Apr-17 14:59N 54°23' E 018°43'0 0.0
2018-Apr-17 14:29N 54°23' E 018°43'0 0.0
2018-Apr-17 13:59N 54°23' E 018°43'0 0.0
2018-Apr-17 13:29N 54°23' E 018°43'0 0.0
2018-Apr-17 12:59N 54°23' E 018°43'0 0.0
2018-Apr-17 12:29N 54°23' E 018°43'0 0.0
2018-Apr-17 11:59N 54°23' E 018°43'0 0.0
2018-Apr-17 11:29N 54°23' E 018°43'0 0.0
2018-Apr-17 10:59N 54°23' E 018°43'0 0.0
2018-Apr-17 10:29N 54°23' E 018°43'0 0.0
2018-Apr-17 09:59N 54°23' E 018°43'0 0.0
2018-Apr-17 09:29N 54°23' E 018°43'0 0.0
2018-Apr-17 08:59N 54°23' E 018°43'0 0.0
2018-Apr-17 08:29N 54°23' E 018°43'0 0.0
2018-Apr-17 07:59N 54°23' E 018°43'0 0.0
2018-Apr-17 07:29N 54°23' E 018°43'0 0.0
2018-Apr-17 06:59N 54°23' E 018°43'0 0.0
2018-Apr-17 06:29N 54°23' E 018°43'0 0.0
2018-Apr-17 05:59N 54°23' E 018°43'0 0.0
2018-Apr-17 05:29N 54°23' E 018°43'0 0.0
2018-Apr-17 04:59N 54°23' E 018°43'0 0.0
2018-Apr-17 04:29N 54°23' E 018°43'0 0.0
2018-Apr-17 03:59N 54°23' E 018°43'0 0.0
2018-Apr-17 03:29N 54°23' E 018°43'0 0.0
2018-Apr-17 02:59N 54°23' E 018°43'0 0.0
2018-Apr-17 02:29N 54°23' E 018°43'0 0.0
2018-Apr-17 01:59N 54°23' E 018°43'0 0.0
2018-Apr-17 01:29N 54°23' E 018°43'0 0.0
2018-Apr-17 00:59N 54°23' E 018°43'0 0.0
2018-Apr-17 00:29N 54°23' E 018°43'0 0.0
2018-Apr-16 23:59N 54°23' E 018°43'0 0.0
2018-Apr-16 23:29N 54°23' E 018°43'0 0.0
2018-Apr-16 22:59N 54°23' E 018°43'0 0.0
2018-Apr-16 22:29N 54°23' E 018°43'0 0.0
2018-Apr-16 21:59N 54°23' E 018°43'0 0.0
2018-Apr-16 21:29N 54°23' E 018°43'0 0.0
2018-Apr-16 20:59N 54°23' E 018°43'0 0.0
2018-Apr-16 20:29N 54°23' E 018°43'0 0.0
2018-Apr-16 19:59N 54°23' E 018°43'0 0.0
2018-Apr-16 19:29N 54°23' E 018°43'0 0.0
2018-Apr-16 18:59N 54°23' E 018°43'0 0.0
2018-Apr-16 18:26N 54°23' E 018°43'0 0.0
2018-Apr-16 17:59N 54°23' E 018°43'0 0.0
2018-Apr-16 17:29N 54°23' E 018°43'0 0.0
2018-Apr-16 16:59N 54°23' E 018°43'0 0.0
2018-Apr-16 16:29N 54°23' E 018°43'0 0.0
2018-Apr-16 15:59N 54°23' E 018°43'0 0.0
2018-Apr-16 15:29N 54°23' E 018°43'0 0.0
2018-Apr-16 14:59N 54°23' E 018°43'0 0.0
2018-Apr-16 14:28N 54°23' E 018°43'0 0.0
2018-Apr-16 13:59N 54°23' E 018°43'0 0.0
2018-Apr-16 13:29N 54°23' E 018°43'0 0.0
2018-Apr-16 12:59N 54°23' E 018°43'0 0.0
2018-Apr-16 12:29N 54°23' E 018°43'0 0.0
2018-Apr-16 11:59N 54°23' E 018°43'0 0.0
2018-Apr-16 11:29N 54°23' E 018°43'0 0.0
2018-Apr-16 10:59N 54°23' E 018°43'0 0.0
2018-Apr-16 10:29N 54°23' E 018°43'0 0.0
2018-Apr-16 09:59N 54°23' E 018°43'0 0.0
2018-Apr-16 09:30N 54°23' E 018°43'2 3.3
2018-Apr-16 09:00N 54°24' E 018°46'4 8.3
2018-Apr-16 08:31N 54°26' E 018°52'4 8.2
2018-Apr-16 08:00N 54°29' E 018°57'611.4
2018-Apr-16 07:30N 54°34' E 019°02'713.2
2018-Apr-16 07:00N 54°40' E 019°03'714.0
2018-Apr-16 06:30N 54°47' E 019°04'714.0
2018-Apr-16 06:00N 54°54' E 019°08'713.8
2018-Apr-16 05:30N 55°01' E 019°12'713.9
2018-Apr-16 05:00N 55°07' E 019°16'714.1
2018-Apr-16 04:30N 55°14' E 019°20'  
2018-Apr-13 23:52N 58°52' E 021°27'513.7
2018-Apr-13 23:31N 58°56' E 021°29'713.8
2018-Apr-13 23:00N 59°03' E 021°33'713.6
2018-Apr-13 22:30N 59°09' E 021°40'713.7
2018-Apr-13 22:00N 59°13' E 021°51'713.9
2018-Apr-13 21:29N 59°17' E 022°01'713.8
2018-Apr-13 21:00N 59°22' E 022°12'714.0
2018-Apr-13 20:31N 59°26' E 022°23'714.2
2018-Apr-13 20:01N 59°30' E 022°34'714.4
2018-Apr-13 19:31N 59°32' E 022°48'714.3
2018-Apr-13 19:00N 59°34' E 023°01'714.5
2018-Apr-13 18:30N 59°36' E 023°15'714.4
2018-Apr-13 18:01N 59°38' E 023°29'714.3
2018-Apr-13 17:30N 59°40' E 023°42'714.4
2018-Apr-13 17:00N 59°42' E 023°56'714.4
2018-Apr-13 16:30N 59°44' E 024°10'714.4
2018-Apr-13 16:01N 59°45' E 024°24'713.0
2018-Apr-13 15:31N 59°43' E 024°36'714.4
2018-Apr-13 15:01N 59°38' E 024°47'1010.4
2018-Apr-13 14:00N 59°29' E 024°58'0 0.0
2018-Apr-13 13:29N 59°29' E 024°58'0 0.0
2018-Apr-13 12:59N 59°29' E 024°58'0 0.0
2018-Apr-13 12:29N 59°29' E 024°58'0 0.0
2018-Apr-13 11:59N 59°29' E 024°58'0 0.0
2018-Apr-13 11:29N 59°29' E 024°58'0 0.0
2018-Apr-13 10:59N 59°29' E 024°58'0 0.0
2018-Apr-13 10:29N 59°29' E 024°58'0 0.0
2018-Apr-13 09:59N 59°29' E 024°58'0 0.0
2018-Apr-13 09:29N 59°29' E 024°58'0 0.0
2018-Apr-13 08:59N 59°29' E 024°58'0 0.0
2018-Apr-13 08:29N 59°29' E 024°58'0 0.0
2018-Apr-13 07:59N 59°29' E 024°58'0 0.0
2018-Apr-13 07:29N 59°29' E 024°58'0 0.0
2018-Apr-13 06:59N 59°29' E 024°58'0 0.0
2018-Apr-13 06:29N 59°29' E 024°58'0 0.0
2018-Apr-13 05:59N 59°29' E 024°58'0 0.0
2018-Apr-13 05:29N 59°29' E 024°58'0 0.0
2018-Apr-13 04:59N 59°29' E 024°58'0 0.0
2018-Apr-13 04:29N 59°29' E 024°58'0 0.0
2018-Apr-13 03:59N 59°29' E 024°58'1 2.5
2018-Apr-13 03:30N 59°31' E 024°58'713.5
2018-Apr-13 03:01N 59°36' E 024°51'510.3
2018-Apr-13 02:31N 59°40' E 024°43'4 8.9
2018-Apr-13 02:01N 59°42' E 024°36'5 9.1
2018-Apr-13 01:31N 59°43' E 024°27'713.8
2018-Apr-13 01:00N 59°41' E 024°13'713.7
2018-Apr-13 00:31N 59°39' E 024°01'713.9
2018-Apr-13 00:01N 59°37' E 023°48'713.8
2018-Apr-12 23:30N 59°34' E 023°35'814.0
2018-Apr-12 22:58N 59°32' E 023°21'2414.0
2018-Apr-12 21:16N 59°24' E 022°37'513.8
2018-Apr-12 20:53N 59°21' E 022°28'613.4
2018-Apr-12 20:29N 59°18' E 022°20'613.5
2018-Apr-12 20:00N 59°14' E 022°10'1413.2
2018-Apr-12 18:57N 59°05' E 021°49'714.9
2018-Apr-12 18:30N 58°59' E 021°42'815.4
2018-Apr-12 18:00N 58°52' E 021°36'815.2
2018-Apr-12 17:27N 58°44' E 021°29'20815.3
2018-Apr-12 03:52N 55°32' E 019°04'2415.7
2018-Apr-12 02:20N 55°08' E 019°03'515.7
2018-Apr-12 02:00N 55°03' E 019°04'815.4
2018-Apr-12 01:30N 54°55' E 019°04'815.5
2018-Apr-12 01:00N 54°47' E 019°05'815.5
2018-Apr-12 00:30N 54°39' E 019°06'714.5
2018-Apr-12 00:01N 54°32' E 019°04'815.2
2018-Apr-11 23:30N 54°26' E 018°57'714.8
2018-Apr-11 23:00N 54°24' E 018°45'1 2.6
2018-Apr-11 22:30N 54°23' E 018°43'0 0.0
2018-Apr-11 22:00N 54°23' E 018°43'0 0.0
2018-Apr-11 21:30N 54°23' E 018°43'0 0.0
2018-Apr-11 21:00N 54°23' E 018°43'0 0.0
2018-Apr-11 20:30N 54°23' E 018°43'0 0.0
2018-Apr-11 19:57N 54°23' E 018°43'0 0.0
2018-Apr-11 19:30N 54°23' E 018°43'0 0.0
2018-Apr-11 19:00N 54°23' E 018°43'0 0.0
2018-Apr-11 18:30N 54°23' E 018°43'0 0.0
2018-Apr-11 18:00N 54°23' E 018°43'0 0.0
2018-Apr-11 17:30N 54°23' E 018°43'0 0.0
2018-Apr-11 17:00N 54°23' E 018°43'0 0.0
2018-Apr-11 16:30N 54°23' E 018°43'0 0.0
2018-Apr-11 16:00N 54°23' E 018°43'0 0.0
2018-Apr-11 15:30N 54°23' E 018°43'0 0.0
2018-Apr-11 15:00N 54°23' E 018°43'0 0.0
2018-Apr-11 14:30N 54°23' E 018°43'0 0.0
2018-Apr-11 14:00N 54°23' E 018°43'0 0.0
2018-Apr-11 13:30N 54°23' E 018°43'0 0.0
2018-Apr-11 13:00N 54°23' E 018°43'0 0.0
2018-Apr-11 12:30N 54°23' E 018°43'0 0.0
2018-Apr-11 12:00N 54°23' E 018°43'0 0.0
2018-Apr-11 11:30N 54°23' E 018°43'0 0.0
2018-Apr-11 11:00N 54°23' E 018°43'0 0.0
2018-Apr-11 10:30N 54°23' E 018°43'0 0.0
2018-Apr-11 10:00N 54°23' E 018°43'0 0.0
2018-Apr-11 09:30N 54°23' E 018°43'0 0.0
2018-Apr-11 09:00N 54°23' E 018°43'0 0.0
2018-Apr-11 08:30N 54°23' E 018°43'0 0.0
2018-Apr-11 08:00N 54°23' E 018°43'0 0.0
2018-Apr-11 07:30N 54°23' E 018°43'0 0.0
2018-Apr-11 07:00N 54°23' E 018°43'0 0.0
2018-Apr-11 06:30N 54°23' E 018°43'0 0.0
2018-Apr-11 06:00N 54°23' E 018°43'0 0.0
2018-Apr-11 05:30N 54°23' E 018°43'0 0.0
2018-Apr-11 05:00N 54°23' E 018°43'0 0.0
2018-Apr-11 04:30N 54°23' E 018°43'0 0.0
2018-Apr-11 04:00N 54°23' E 018°43'0 0.0
2018-Apr-11 03:30N 54°23' E 018°43'0 0.0
2018-Apr-11 03:00N 54°23' E 018°43'0 0.0
2018-Apr-11 02:30N 54°23' E 018°43'0 0.0
2018-Apr-11 02:00N 54°23' E 018°43'0 0.0
2018-Apr-11 01:30N 54°23' E 018°43'0 0.9
2018-Apr-11 01:00N 54°24' E 018°43'4 7.5
2018-Apr-11 00:30N 54°25' E 018°49'3 5.5
2018-Apr-11 00:00N 54°26' E 018°54'510.2
2018-Apr-10 23:30N 54°30' E 018°59'714.1
2018-Apr-10 23:00N 54°37' E 019°04'713.2
2018-Apr-10 22:30N 54°43' E 019°01'713.1
2018-Apr-10 22:00N 54°49' E 019°02'713.9
2018-Apr-10 21:30N 54°56' E 019°02'714.0
2018-Apr-10 21:00N 55°03' E 019°01'713.8
2018-Apr-10 20:30N 55°10' E 019°00'1414.0
2018-Apr-10 19:31N 55°24' E 019°00'015.2
2018-Apr-10 19:30N 55°24' E 019°00'714.0
2018-Apr-10 19:00N 55°31' E 019°01'  

Dump ship's entire track history